METAR Data
IDs: Format: Raw Decoded Include TAF

Data at: 2106 UTC 24 Mar 2019

KVCT 242051Z 17015KT 10SM OVC055 26/19 A3004 RMK AO2 SLP171 T02560194 56013
KVCT 241951Z 17013KT 10SM FEW024 OVC049 26/19 A3005 RMK AO2 SLP173 T02610189
KVCT 241851Z 16015KT 10SM FEW022 FEW027 OVC047 26/19 A3007 RMK AO2 SLP179 T02560189
KVCT 241751Z 18015KT 10SM SCT025 SCT031 OVC049 26/19 A3008 RMK AO2 SLP185 T02610189 10267 20150 58010
KVCT 241744Z 17012KT 10SM SCT023 SCT031 OVC049 26/19 A3008 RMK AO2 T02610189
KVCT 241651Z 19009G19KT 10SM BKN019 BKN026 OVC048 24/19 A3010 RMK AO2 SLP192 T02440189
KVCT 241551Z 18009KT 10SM BKN017 BKN023 OVC050 23/19 A3012 RMK AO2 SLP197 T02330189
KVCT 241535Z 18008KT 10SM BKN017 BKN022 OVC048 23/19 A3012 RMK AO2 T02330194
KVCT 241451Z 16008KT 10SM OVC049 21/19 A3011 RMK AO2 SLP195 T02060194 53013
KVCT 241351Z 12006KT 6SM BR SCT026 OVC050 18/18 A3009 RMK AO2 SLP188 T01830178
KVCT 241329Z 12004KT 3SM BR FEW022 OVC050 18/17 A3009 RMK AO2 T01780172
KVCT 241319Z 11004KT 2 1/2SM BR FEW020 OVC050 17/17 A3009 RMK AO2 T01720167
KVCT 241309Z 12004KT 1 1/2SM BR FEW020 OVC055 17/16 A3009 RMK AO2 T01670161
KVCT 241258Z 10005KT 3/4SM BR FEW019 OVC055 17/16 A3009 RMK AO2 T01670161
KVCT 241251Z 08005KT 1SM BR SCT012 BKN055 OVC095 16/16 A3009 RMK AO2 SLP186 T01610156
KVCT 241246Z 08005KT 1SM BR SCT010 BKN055 OVC090 16/16 A3009 RMK AO2
KVCT 241241Z 07005KT 1/2SM FG BKN010 BKN055 OVC090 16/16 A3009 RMK AO2 T01610156
KVCT 241232Z 06004KT 1/4SM FG BKN008 BKN055 OVC100 16/16 A3009 RMK AO2 T01610156
KVCT 241222Z 04005KT 1/2SM FG BKN010 BKN055 OVC095 16/15 A3009 RMK AO2 T01560150
KVCT 241200Z 05004KT 1/4SM FG BKN020 OVC055 16/15 A3008 RMK AO2 T01560150
KVCT 241151Z 07005KT 1/2SM FG BKN020 OVC055 16/15 A3007 RMK AO2 SLP182 T01560150 10178 20156 53005
KVCT 241141Z AUTO 08005KT 3/4SM BR BKN024 BKN029 OVC055 16/15 A3007 RMK AO2 T01560150
KVCT 241127Z AUTO 07005KT 1 3/4SM BR BKN026 OVC055 16/16 A3007 RMK AO2 T01610156
KVCT 241120Z AUTO 07005KT 2SM BR BKN026 OVC055 16/16 A3007 RMK AO2 T01610156
KVCT 241108Z AUTO 08004KT 3SM BR BKN024 BKN031 OVC055 17/16 A3007 RMK AO2 T01670156
KVCT 241051Z AUTO 08005KT 4SM BR SCT029 OVC050 17/16 A3006 RMK AO2 SLP179 T01720161
KVCT 240951Z AUTO 06004KT 4SM BR OVC029 17/16 A3006 RMK AO2 SLP177 T01720161
KVCT 240933Z AUTO 08004KT 5SM BR OVC029 17/16 A3005 RMK AO2 T01720161
KVCT 240914Z AUTO 14005KT 5SM BR SCT024 OVC031 17/16 A3005 RMK AO2 T01670161
KVCT 240851Z AUTO 10004KT 6SM BR SCT010 BKN023 OVC029 17/17 A3006 RMK AO2 SLP177 T01720167 58006
KVCT 240803Z AUTO 05004KT 5SM BR BKN013 OVC026 16/16 A3008 RMK AO2 T01610156
KVCT 240751Z AUTO 04004KT 5SM BR FEW013 OVC026 16/14 A3007 RMK AO2 SLP182 T01560144
KVCT 240712Z AUTO 13006KT 8SM BKN027 OVC049 17/16 A3006 RMK AO2 T01670156
KVCT 240651Z AUTO 13004KT 8SM FEW031 OVC050 17/16 A3007 RMK AO2 SLP180 T01720161
KVCT 240551Z AUTO 12005KT 9SM FEW055 17/16 A3008 RMK AO2 SLP183 T01720161 10211 20156 402610156 58001
KVCT 240451Z AUTO 11003KT 10SM BKN055 18/16 A3010 RMK AO2 SLP190 T01780161
KVCT 240351Z AUTO 12003KT 10SM OVC055 18/16 A3010 RMK AO2 SLP192 T01830161
KVCT 240327Z AUTO 13004KT 10SM SCT024 SCT050 18/16 A3009 RMK AO2 T01780161
KVCT 240259Z AUTO 13007KT 10SM BKN025 18/17 A3008 RMK AO2 T01830167
KVCT 240251Z AUTO 13007KT 10SM SCT025 18/17 A3008 RMK AO2 SLP184 T01830167 53004
KVCT 240151Z 13008KT 10SM CLR 19/17 A3007 RMK AO2 SLP180 T01890167
KVCT 240051Z 13013KT 10SM BKN080 20/17 A3006 RMK AO2 SLP179 T02000167
KVCT 232351Z 13014KT 10SM FEW033 OVC075 21/17 A3007 RMK AO2 SLP180 T02110167 10261 20211 53004
KVCT 232312Z 13016KT 10SM SCT026 BKN085 22/17 A3006 RMK AO2 T02220167
KVCT 232251Z 13015KT 10SM FEW023 BKN029 22/17 A3005 RMK AO2 SLP174 T02220167
KVCT 232151Z 15017KT 10SM BKN036 BKN044 OVC050 24/16 A3005 RMK AO2 SLP175 T02390156
KVCT 232051Z 16014G23KT 10SM FEW036 BKN047 OVC060 24/15 A3006 RMK AO2 SLP177 T02440150 56015
KVCT 231951Z 15015KT 10SM SCT037 BKN045 OVC090 26/15 A3006 RMK AO2 SLP179 T02560150
KVCT 231851Z 14016KT 10SM BKN038 BKN049 BKN075 25/16 A3008 RMK AO2 PK WND 13026/1757 SLP185 T02500156
KVCT 231751Z 15015KT 10SM BKN032 OVC090 26/16 A3010 RMK AO2 SLP191 T02560156 10256 20178 58007
KVCT 231721Z 15017KT 10SM BKN030 BKN039 OVC090 24/16 A3011 RMK AO2 T02390161
KVCT 231651Z 15013KT 10SM BKN027 BKN032 OVC090 24/16 A3012 RMK AO2 SLP198 T02390161
KVCT 231648Z 16015KT 10SM BKN028 OVC090 24/16 A3012 RMK AO2
KVCT 231551Z 15015KT 10SM SCT075 OVC090 22/16 A3012 RMK AO2 SLP199 T02220161
KVCT 231451Z 14008KT 10SM OVC080 21/16 A3012 RMK AO2 SLP196 T02060161 53020
KVCT 231351Z 13008KT 10SM OVC080 19/16 A3009 RMK AO2 SLP187 T01940161
KVCT 231251Z 13007KT 10SM OVC080 18/16 A3006 RMK AO2 SLP178 T01830156
KVCT 231151Z 13006KT 10SM OVC075 18/16 A3006 RMK AO2 SLP176 T01830156 10183 20172 53002
KVCT 231051Z AUTO 13006KT 10SM OVC075 17/15 A3003 RMK AO2 SLP169 T01720150
KVCT 230951Z AUTO 13007KT 10SM OVC080 17/14 A3003 RMK AO2 SLP166 T01720144